METAR Formatted Surface Weather Observation
Issued by NWS

Home | Current Version | Previous Version | Text Only | Print | Product List | Glossary On
Versions: 1 2 3 4 5 6 7 8 9 10 11 12 13 14 15 16 17 18 19 20 21 22 23 24 25 26 27 28
000
SAUS46 KSTO 211200 COR
MTRBLU
METAR KBLU 211152Z AUTO 03004KT 10SM CLR 18/M08 A3019 RMK AO2 SLP124
T01781083 10189 20167 56007 TSNO



USA.gov is the U.S. government's official web portal to all federal, state and local government web resources and services.